createdAt,value
2023-05-01T00:00:50.549Z,38.82
2023-05-01T00:01:50.562Z,38.80
2023-05-01T00:02:50.635Z,38.77
2023-05-01T00:03:50.608Z,38.75
2023-05-01T00:04:50.590Z,38.76
2023-05-01T00:05:50.502Z,38.72
2023-05-01T00:06:50.669Z,38.74
2023-05-01T00:07:50.493Z,38.71
2023-05-01T00:08:50.484Z,38.73
2023-05-01T00:09:50.501Z,38.73
2023-05-01T00:10:50.512Z,38.71
2023-05-01T00:11:50.484Z,38.69
2023-05-01T00:12:50.493Z,38.69
2023-05-01T00:13:50.480Z,38.70
2023-05-01T00:14:50.476Z,38.72
2023-05-01T00:15:50.481Z,38.69
2023-05-01T00:16:50.568Z,38.69
2023-05-01T00:17:50.506Z,38.70
2023-05-01T00:18:50.494Z,38.70
2023-05-01T00:19:50.475Z,38.69
2023-05-01T00:20:50.472Z,38.70
2023-05-01T00:21:50.468Z,38.69
2023-05-01T00:22:50.469Z,38.67
2023-05-01T00:23:50.463Z,38.66
2023-05-01T00:24:50.461Z,38.66
2023-05-01T00:25:50.483Z,38.66
2023-05-01T00:26:50.482Z,38.69
2023-05-01T00:27:50.454Z,38.66
2023-05-01T00:28:50.454Z,38.66
2023-05-01T00:29:50.449Z,38.66
2023-05-01T00:30:50.454Z,38.66
2023-05-01T00:31:50.517Z,38.67
2023-05-01T00:32:50.505Z,38.65
2023-05-01T00:33:50.435Z,38.67
2023-05-01T00:34:50.427Z,38.65
2023-05-01T00:35:50.892Z,38.65
2023-05-01T00:36:50.417Z,38.64
2023-05-01T00:37:50.410Z,38.66
2023-05-01T00:38:50.400Z,38.65
2023-05-01T00:39:50.402Z,38.62
2023-05-01T00:40:50.391Z,38.62
2023-05-01T00:41:50.390Z,38.64
2023-05-01T00:42:50.413Z,38.65
2023-05-01T00:43:50.391Z,38.63
2023-05-01T00:44:50.381Z,38.63
2023-05-01T00:45:50.390Z,38.64
2023-05-01T00:46:50.384Z,38.64
2023-05-01T00:47:50.418Z,38.63
2023-05-01T00:48:50.400Z,38.62
2023-05-01T00:49:50.386Z,38.63
2023-05-01T00:50:50.400Z,38.62
2023-05-01T00:51:50.374Z,38.63
2023-05-01T00:52:50.378Z,38.62
2023-05-01T00:53:50.369Z,38.61
2023-05-01T00:54:50.368Z,38.63
2023-05-01T00:55:50.361Z,38.61
2023-05-01T00:56:50.363Z,38.62
2023-05-01T00:57:50.354Z,38.60
2023-05-01T00:58:50.379Z,38.60
2023-05-01T00:59:50.346Z,38.62
2023-05-01T01:00:50.387Z,38.64
2023-05-01T01:01:50.346Z,38.61
2023-05-01T01:02:50.387Z,38.60
2023-05-01T01:03:50.350Z,38.59
2023-05-01T01:04:50.463Z,38.60
2023-05-01T01:05:50.355Z,38.63
2023-05-01T01:06:50.969Z,38.59
2023-05-01T01:07:50.369Z,38.60
2023-05-01T01:08:50.362Z,38.60
2023-05-01T01:09:50.360Z,38.63
2023-05-01T01:10:50.363Z,38.60
2023-05-01T01:11:50.366Z,38.64
2023-05-01T01:12:50.359Z,38.63
2023-05-01T01:13:50.367Z,38.60
2023-05-01T01:14:50.497Z,38.59
2023-05-01T01:15:50.363Z,38.60
2023-05-01T01:16:50.367Z,38.60
2023-05-01T01:17:50.385Z,38.62
2023-05-01T01:18:50.369Z,38.59
2023-05-01T01:19:50.364Z,38.60
2023-05-01T01:20:50.370Z,38.59
2023-05-01T01:21:50.362Z,38.58
2023-05-01T01:22:50.363Z,38.57
2023-05-01T01:23:50.373Z,38.59
2023-05-01T01:24:50.361Z,38.60
2023-05-01T01:25:50.355Z,38.60
2023-05-01T01:26:50.354Z,38.58
2023-05-01T01:27:50.353Z,38.59
2023-05-01T01:28:50.345Z,38.56
2023-05-01T01:29:50.350Z,38.57
2023-05-01T01:30:50.408Z,38.56
2023-05-01T01:31:50.335Z,38.58
2023-05-01T01:32:50.368Z,38.58
2023-05-01T01:33:50.347Z,38.58
2023-05-01T01:34:50.346Z,38.59
2023-05-01T01:35:50.343Z,38.58
2023-05-01T01:36:50.360Z,38.57
2023-05-01T01:37:50.341Z,38.56
2023-05-01T01:38:50.338Z,38.54
2023-05-01T01:39:50.341Z,38.56
2023-05-01T01:40:50.354Z,38.56
2023-05-01T01:41:50.351Z,38.56
2023-05-01T01:42:50.344Z,38.57
2023-05-01T01:43:50.345Z,38.56
2023-05-01T01:44:50.340Z,38.55
2023-05-01T01:45:50.366Z,38.56
2023-05-01T01:46:50.375Z,38.55
2023-05-01T01:47:50.389Z,38.58
2023-05-01T01:48:50.366Z,38.58
2023-05-01T01:49:50.341Z,38.58
2023-05-01T01:50:50.363Z,38.54
2023-05-01T01:51:50.350Z,38.55
2023-05-01T01:52:50.362Z,38.57
2023-05-01T01:53:50.402Z,38.55
2023-05-01T01:54:50.373Z,38.56
2023-05-01T01:55:50.355Z,38.55
2023-05-01T01:56:50.360Z,38.54
2023-05-01T01:57:50.358Z,38.52
2023-05-01T01:58:50.354Z,38.57
2023-05-01T01:59:50.355Z,38.55
2023-05-01T02:00:50.349Z,38.55
2023-05-01T02:01:50.423Z,38.53
2023-05-01T02:02:50.399Z,38.52
2023-05-01T02:03:50.433Z,38.54
2023-05-01T02:04:50.358Z,38.54
2023-05-01T02:05:50.356Z,38.53
2023-05-01T02:06:50.472Z,38.55
2023-05-01T02:07:50.364Z,38.52
2023-05-01T02:08:50.369Z,38.52
2023-05-01T02:09:50.377Z,38.52
2023-05-01T02:10:50.349Z,38.56
2023-05-01T02:11:50.346Z,38.50
2023-05-01T02:12:50.354Z,38.53
2023-05-01T02:13:50.347Z,38.51
2023-05-01T02:14:50.373Z,38.52
2023-05-01T02:15:50.440Z,38.53
2023-05-01T02:16:50.352Z,38.52
2023-05-01T02:17:50.401Z,38.54
2023-05-01T02:18:50.400Z,38.49
2023-05-01T02:19:50.351Z,38.51
2023-05-01T02:20:50.365Z,38.51
2023-05-01T02:21:50.386Z,38.51
2023-05-01T02:22:50.356Z,38.54
2023-05-01T02:23:50.356Z,38.51
2023-05-01T02:24:50.366Z,38.52
2023-05-01T02:25:50.371Z,38.51
2023-05-01T02:26:50.361Z,38.53
2023-05-01T02:27:50.372Z,38.51
2023-05-01T02:28:50.372Z,38.49
2023-05-01T02:29:50.369Z,38.52
2023-05-01T02:30:50.387Z,38.50
2023-05-01T02:31:50.411Z,38.52
2023-05-01T02:32:50.445Z,38.49
2023-05-01T02:33:50.373Z,38.52
2023-05-01T02:34:50.418Z,38.50
2023-05-01T02:35:50.384Z,38.49
2023-05-01T02:36:50.387Z,38.50
2023-05-01T02:37:50.395Z,38.49
2023-05-01T02:38:50.389Z,38.51
2023-05-01T02:39:50.384Z,38.50
2023-05-01T02:40:50.385Z,38.52
2023-05-01T02:41:50.387Z,38.49
2023-05-01T02:42:50.387Z,38.49
2023-05-01T02:43:50.385Z,38.48
2023-05-01T02:44:50.382Z,38.48
2023-05-01T02:45:50.518Z,38.49
2023-05-01T02:46:50.411Z,38.47
2023-05-01T02:47:50.461Z,38.48
2023-05-01T02:48:50.379Z,38.48
2023-05-01T02:49:50.381Z,38.47
2023-05-01T02:50:50.412Z,38.48
2023-05-01T02:51:50.386Z,38.48
2023-05-01T02:52:50.387Z,38.49
2023-05-01T02:53:50.398Z,38.47
2023-05-01T02:54:50.401Z,38.48
2023-05-01T02:55:50.420Z,38.45
2023-05-01T02:56:50.418Z,38.47
2023-05-01T02:57:50.413Z,38.48
2023-05-01T02:58:50.415Z,38.47
2023-05-01T02:59:50.428Z,38.47
2023-05-01T03:00:50.457Z,38.48
2023-05-01T03:01:50.496Z,38.46
2023-05-01T03:02:50.474Z,38.50
2023-05-01T03:03:50.449Z,38.44
2023-05-01T03:04:50.449Z,38.48
2023-05-01T03:05:50.434Z,38.48
2023-05-01T03:06:50.519Z,38.44
2023-05-01T03:07:50.440Z,38.48
2023-05-01T03:08:50.435Z,38.47
2023-05-01T03:09:50.433Z,38.47
2023-05-01T03:10:50.456Z,38.47
2023-05-01T03:11:50.441Z,38.44
2023-05-01T03:12:50.444Z,38.47
2023-05-01T03:13:50.454Z,38.43
2023-05-01T03:14:50.454Z,38.41
2023-05-01T03:15:50.463Z,38.44
2023-05-01T03:16:50.483Z,38.43
2023-05-01T03:17:50.533Z,38.45
2023-05-01T03:18:50.482Z,38.43
2023-05-01T03:19:50.474Z,38.43
2023-05-01T03:20:50.482Z,38.43
2023-05-01T03:21:50.489Z,38.44
2023-05-01T03:22:50.511Z,38.43
2023-05-01T03:23:50.500Z,38.43
2023-05-01T03:24:50.494Z,38.42
2023-05-01T03:25:50.507Z,38.42
2023-05-01T03:26:50.501Z,38.40
2023-05-01T03:27:50.506Z,38.41
2023-05-01T03:28:50.513Z,38.44
2023-05-01T03:29:50.522Z,38.42
2023-05-01T03:30:50.520Z,38.42
2023-05-01T03:31:50.569Z,38.44
2023-05-01T03:32:50.545Z,38.42
2023-05-01T03:33:50.554Z,38.40
2023-05-01T03:34:50.598Z,38.40
2023-05-01T03:35:50.552Z,38.40
2023-05-01T03:36:50.568Z,38.43
2023-05-01T03:37:50.560Z,38.43
2023-05-01T03:38:50.615Z,38.39
2023-05-01T03:39:50.569Z,38.40
2023-05-01T03:40:50.566Z,38.42
2023-05-01T03:41:50.589Z,38.42
2023-05-01T03:42:50.576Z,38.39
2023-05-01T03:43:50.592Z,38.40
2023-05-01T03:44:50.589Z,38.40
2023-05-01T03:45:50.657Z,38.37
2023-05-01T03:46:50.605Z,38.39
2023-05-01T03:47:50.679Z,38.40
2023-05-01T03:48:50.602Z,38.39
2023-05-01T03:49:50.606Z,38.38
2023-05-01T03:50:50.610Z,38.41
2023-05-01T03:51:50.618Z,38.38
2023-05-01T03:52:50.624Z,38.41
2023-05-01T03:53:50.631Z,38.40
2023-05-01T03:54:50.655Z,38.40
2023-05-01T03:55:50.635Z,38.40
2023-05-01T03:56:50.653Z,38.40
2023-05-01T03:57:50.654Z,38.40
2023-05-01T03:58:50.656Z,38.39
2023-05-01T03:59:50.669Z,38.41
2023-05-01T04:00:50.664Z,38.41
2023-05-01T04:01:50.697Z,38.39
2023-05-01T04:02:50.885Z,38.43
2023-05-01T04:03:50.766Z,38.41
2023-05-01T04:04:50.670Z,38.38
2023-05-01T04:05:50.675Z,38.41
2023-05-01T04:06:50.760Z,38.39
2023-05-01T04:07:50.689Z,38.39
2023-05-01T04:08:50.683Z,38.39
2023-05-01T04:09:50.685Z,38.41
2023-05-01T04:10:50.712Z,38.40
2023-05-01T04:11:50.693Z,38.40
2023-05-01T04:12:50.696Z,38.39
2023-05-01T04:13:50.703Z,38.38
2023-05-01T04:14:50.716Z,38.41
2023-05-01T04:15:50.763Z,38.39
2023-05-01T04:16:50.721Z,38.38
2023-05-01T04:17:50.792Z,38.37
2023-05-01T04:18:50.739Z,38.37
2023-05-01T04:19:50.744Z,38.39
2023-05-01T04:20:50.746Z,38.38
2023-05-01T04:21:50.758Z,38.34
2023-05-01T04:22:50.772Z,38.37
2023-05-01T04:23:50.758Z,38.37
2023-05-01T04:24:50.768Z,38.35
2023-05-01T04:25:50.774Z,38.38
2023-05-01T04:26:50.815Z,38.37
2023-05-01T04:27:50.794Z,38.37
2023-05-01T04:28:50.816Z,38.36
2023-05-01T04:29:50.817Z,38.36
2023-05-01T04:30:50.817Z,38.35
2023-05-01T04:31:50.840Z,38.38
2023-05-01T04:32:50.866Z,38.38
2023-05-01T04:33:50.827Z,38.34
2023-05-01T04:34:50.819Z,38.37
2023-05-01T04:35:50.832Z,38.36
2023-05-01T04:36:50.828Z,38.36
2023-05-01T04:37:50.834Z,38.34
2023-05-01T04:38:50.839Z,38.34
2023-05-01T04:39:50.845Z,38.35
2023-05-01T04:40:50.850Z,38.34
2023-05-01T04:41:50.860Z,38.36
2023-05-01T04:42:50.886Z,38.34
2023-05-01T04:43:50.866Z,38.35
2023-05-01T04:44:50.872Z,38.34
2023-05-01T04:45:50.879Z,38.33
2023-05-01T04:46:50.937Z,38.33
2023-05-01T04:47:50.933Z,38.31
2023-05-01T04:48:50.911Z,38.35
2023-05-01T04:49:50.898Z,38.32
2023-05-01T04:50:50.904Z,38.34
2023-05-01T04:51:50.908Z,38.32
2023-05-01T04:52:50.912Z,38.34
2023-05-01T04:53:50.920Z,38.31
2023-05-01T04:54:50.928Z,38.33
2023-05-01T04:55:50.943Z,38.32
2023-05-01T04:56:50.930Z,38.32
2023-05-01T04:57:50.946Z,38.33
2023-05-01T04:58:50.962Z,38.32
2023-05-01T04:59:50.940Z,38.31
2023-05-01T05:00:50.954Z,38.30
2023-05-01T05:01:50.968Z,38.31
2023-05-01T05:02:51.081Z,38.31
2023-05-01T05:03:51.127Z,38.31
2023-05-01T05:04:51.013Z,38.29
2023-05-01T05:05:50.985Z,38.33
2023-05-01T05:06:51.020Z,38.33
2023-05-01T05:07:50.991Z,38.30
2023-05-01T05:08:50.995Z,38.34
2023-05-01T05:09:50.998Z,38.32
2023-05-01T05:10:51.005Z,38.34
2023-05-01T05:11:51.009Z,38.29
2023-05-01T05:12:51.017Z,38.27
2023-05-01T05:13:51.027Z,38.22
2023-05-01T05:14:51.047Z,38.15
2023-05-01T05:15:51.030Z,38.12
2023-05-01T05:16:51.063Z,38.06
2023-05-01T05:17:51.080Z,37.98
2023-05-01T05:18:51.069Z,37.89
2023-05-01T05:19:51.064Z,37.84
2023-05-01T05:20:51.075Z,37.75
2023-05-01T05:21:51.085Z,37.72
2023-05-01T05:22:51.095Z,37.67
2023-05-01T05:23:51.115Z,37.62
2023-05-01T05:24:51.121Z,37.56
2023-05-01T05:25:51.139Z,37.55
2023-05-01T05:26:51.150Z,37.54
2023-05-01T05:27:51.168Z,37.54
2023-05-01T05:28:51.201Z,37.44
2023-05-01T05:29:51.203Z,37.44
2023-05-01T05:30:51.242Z,37.46
2023-05-01T05:31:51.294Z,37.42
2023-05-01T05:32:51.281Z,37.53
2023-05-01T05:33:51.271Z,37.47
2023-05-01T05:34:51.298Z,37.43
2023-05-01T05:35:51.316Z,37.41
2023-05-01T05:36:51.334Z,37.46
2023-05-01T05:37:51.351Z,37.39
2023-05-01T05:38:51.371Z,37.39
2023-05-01T05:39:51.390Z,37.40
2023-05-01T05:40:51.449Z,37.36
2023-05-01T05:41:51.434Z,37.36
2023-05-01T05:42:51.459Z,37.35
2023-05-01T05:43:51.476Z,37.33
2023-05-01T05:44:51.492Z,37.32
2023-05-01T05:45:51.610Z,37.30
2023-05-01T05:46:51.561Z,37.32
2023-05-01T05:47:51.570Z,37.32
2023-05-01T05:48:51.572Z,37.30
2023-05-01T05:49:51.603Z,37.30
2023-05-01T05:50:51.606Z,37.29
2023-05-01T05:51:51.648Z,37.29
2023-05-01T05:52:51.678Z,37.29
2023-05-01T05:53:51.686Z,37.33
2023-05-01T05:54:51.706Z,37.32
2023-05-01T05:55:51.738Z,37.30
2023-05-01T05:56:51.755Z,37.28
2023-05-01T05:57:51.777Z,37.30
2023-05-01T05:58:51.802Z,37.28
2023-05-01T05:59:51.829Z,37.29
2023-05-01T06:00:51.853Z,37.31
2023-05-01T06:01:51.868Z,37.28
2023-05-01T06:02:52.033Z,37.30
2023-05-01T06:03:51.960Z,37.30
2023-05-01T06:04:51.961Z,37.30
2023-05-01T06:05:52.046Z,37.32
2023-05-01T06:06:52.057Z,37.36
2023-05-01T06:07:52.072Z,37.34
2023-05-01T06:08:52.048Z,37.35
2023-05-01T06:09:52.078Z,37.36
2023-05-01T06:10:52.131Z,37.36
2023-05-01T06:11:52.148Z,37.39
2023-05-01T06:12:59.457Z,37.38
2023-05-01T06:13:52.148Z,37.40
2023-05-01T06:14:52.136Z,37.39
2023-05-01T06:15:52.180Z,37.42
2023-05-01T06:16:52.109Z,37.44
2023-05-01T06:17:52.166Z,37.44
2023-05-01T06:18:52.093Z,37.43
2023-05-01T06:19:52.056Z,37.46
2023-05-01T06:20:52.052Z,37.45
2023-05-01T06:21:52.058Z,37.45
2023-05-01T06:22:52.004Z,37.45
2023-05-01T06:23:51.982Z,37.46
2023-05-01T06:24:51.969Z,37.47
2023-05-01T06:25:51.972Z,37.43
2023-05-01T06:26:51.944Z,37.44
2023-05-01T06:27:51.925Z,37.47
2023-05-01T06:28:51.912Z,37.45
2023-05-01T06:29:51.910Z,37.47
2023-05-01T06:30:51.886Z,37.43
2023-05-01T06:31:51.974Z,37.39
2023-05-01T06:32:52.801Z,37.41
2023-05-01T06:33:51.853Z,37.44
2023-05-01T06:34:51.868Z,37.41
2023-05-01T06:35:51.822Z,37.40
2023-05-01T06:36:51.815Z,37.38
2023-05-01T06:37:51.799Z,37.37
2023-05-01T06:38:51.785Z,37.38
2023-05-01T06:39:51.767Z,37.40
2023-05-01T06:40:51.752Z,37.38
2023-05-01T06:41:51.740Z,37.39
2023-05-01T06:42:51.724Z,37.37
2023-05-01T06:43:51.710Z,37.38
2023-05-01T06:44:51.713Z,37.39
2023-05-01T06:45:51.742Z,37.40
2023-05-01T06:46:51.816Z,37.40
2023-05-01T06:47:51.900Z,37.44
2023-05-01T06:48:51.829Z,37.41
2023-05-01T06:49:51.855Z,37.43
2023-05-01T06:50:51.914Z,37.46
2023-05-01T06:51:51.908Z,37.43
2023-05-01T06:52:51.957Z,37.48
2023-05-01T06:53:51.966Z,37.49
2023-05-01T06:54:51.994Z,37.49
2023-05-01T06:55:52.015Z,37.48
2023-05-01T06:56:52.043Z,37.50
2023-05-01T06:57:52.065Z,37.48
2023-05-01T06:58:52.106Z,37.50
2023-05-01T06:59:52.128Z,37.48
2023-05-01T07:00:52.242Z,37.48
2023-05-01T07:01:52.196Z,37.53
2023-05-01T07:02:52.444Z,37.52
2023-05-01T07:03:52.243Z,37.48
2023-05-01T07:04:52.264Z,37.50
2023-05-01T07:05:52.294Z,37.46
2023-05-01T07:06:52.461Z,37.46
2023-05-01T07:08:01.382Z,37.48
2023-05-01T07:08:52.337Z,37.47
2023-05-01T07:09:52.319Z,37.44
2023-05-01T07:10:52.312Z,37.42
2023-05-01T07:11:52.301Z,37.41
2023-05-01T07:12:52.286Z,37.44
2023-05-01T07:13:52.277Z,37.41
2023-05-01T07:14:52.272Z,37.37
2023-05-01T07:15:54.450Z,37.36
2023-05-01T07:16:52.342Z,37.39
2023-05-01T07:17:52.265Z,37.38
2023-05-01T07:18:52.226Z,37.36
2023-05-01T07:19:52.221Z,37.34
2023-05-01T07:20:52.207Z,37.32
2023-05-01T07:21:52.200Z,37.35
2023-05-01T07:22:52.217Z,37.34
2023-05-01T07:23:52.189Z,37.33
2023-05-01T07:24:52.164Z,37.32
2023-05-01T07:25:52.157Z,37.32
2023-05-01T07:26:52.153Z,37.30
2023-05-01T07:27:52.146Z,37.31
2023-05-01T07:28:52.126Z,37.30
2023-05-01T07:29:52.109Z,37.33
2023-05-01T07:30:52.102Z,37.33
2023-05-01T07:31:52.149Z,37.35
2023-05-01T07:32:52.097Z,37.33
2023-05-01T07:33:54.110Z,37.32
2023-05-01T07:34:52.049Z,37.32
2023-05-01T07:35:52.047Z,37.33
2023-05-01T07:36:52.029Z,37.35
2023-05-01T07:37:52.012Z,37.36
2023-05-01T07:38:52.024Z,37.36
2023-05-01T07:39:51.979Z,37.34
2023-05-01T07:40:51.965Z,37.33
2023-05-01T07:41:51.960Z,37.33
2023-05-01T07:42:54.438Z,37.33
2023-05-01T07:43:51.926Z,37.33
2023-05-01T07:44:51.905Z,37.33
2023-05-01T07:45:51.942Z,37.31
2023-05-01T07:46:51.878Z,37.29
2023-05-01T07:47:51.888Z,37.30
2023-05-01T07:48:51.849Z,37.29
2023-05-01T07:49:51.844Z,37.24
2023-05-01T07:50:51.822Z,37.25
2023-05-01T07:51:51.799Z,37.23
2023-05-01T07:52:51.785Z,37.24
2023-05-01T07:53:51.771Z,37.25
2023-05-01T07:54:51.790Z,37.25
2023-05-01T07:55:51.775Z,37.25
2023-05-01T07:56:51.716Z,37.17
2023-05-01T07:57:51.699Z,37.13
2023-05-01T07:58:51.684Z,37.15
2023-05-01T07:59:51.681Z,37.10
2023-05-01T08:00:51.672Z,37.07
2023-05-01T08:01:51.658Z,37.07
2023-05-01T08:02:51.811Z,37.04
2023-05-01T08:03:51.754Z,37.04
2023-05-01T08:04:51.784Z,37.03
2023-05-01T08:05:51.594Z,37.02
2023-05-01T08:06:51.716Z,37.01
2023-05-01T08:07:51.574Z,37.03
2023-05-01T08:08:51.541Z,36.99
2023-05-01T08:09:51.529Z,36.96
2023-05-01T08:10:51.541Z,36.93
2023-05-01T08:11:51.492Z,36.94
2023-05-01T08:12:51.487Z,36.91
2023-05-01T08:13:51.466Z,36.86
2023-05-01T08:14:51.456Z,36.85
2023-05-01T08:15:51.497Z,36.87
2023-05-01T08:16:51.422Z,36.87
2023-05-01T08:17:51.473Z,36.88
2023-05-01T08:18:51.398Z,36.86
2023-05-01T08:19:51.375Z,36.90
2023-05-01T08:20:51.357Z,36.88
2023-05-01T08:21:51.339Z,36.89
2023-05-01T08:22:51.362Z,36.93
2023-05-01T08:23:51.329Z,36.94
2023-05-01T08:24:51.311Z,36.97
2023-05-01T08:25:51.290Z,36.98
2023-05-01T08:26:51.406Z,36.95
2023-05-01T08:27:51.273Z,36.96
2023-05-01T08:28:51.255Z,36.96
2023-05-01T08:29:51.240Z,36.93
2023-05-01T08:30:51.218Z,36.91
2023-05-01T08:31:51.281Z,36.93
2023-05-01T08:32:51.282Z,36.88
2023-05-01T08:33:51.164Z,36.84
2023-05-01T08:34:51.154Z,36.81
2023-05-01T08:35:51.136Z,36.71
2023-05-01T08:36:51.112Z,36.70
2023-05-01T08:37:51.083Z,36.72
2023-05-01T08:38:51.056Z,36.65
2023-05-01T08:39:51.029Z,36.65
2023-05-01T08:40:51.026Z,36.67
2023-05-01T08:41:51.020Z,36.68
2023-05-01T08:42:51.043Z,36.63
2023-05-01T08:43:51.021Z,36.56
2023-05-01T08:44:51.016Z,36.57
2023-05-01T08:45:51.008Z,36.58
2023-05-01T08:46:51.035Z,36.59
2023-05-01T08:47:51.086Z,36.54
2023-05-01T08:48:50.992Z,36.51
2023-05-01T08:49:50.991Z,36.50
2023-05-01T08:50:50.985Z,36.50
2023-05-01T08:51:50.985Z,36.49
2023-05-01T08:52:50.971Z,36.46
2023-05-01T08:53:51.030Z,36.41
2023-05-01T08:54:50.969Z,36.38
2023-05-01T08:55:50.965Z,36.38
2023-05-01T08:56:50.966Z,36.42
2023-05-01T08:57:50.953Z,36.46
2023-05-01T08:58:50.971Z,36.44
2023-05-01T08:59:50.945Z,36.44
2023-05-01T09:00:50.944Z,36.47
2023-05-01T09:01:50.979Z,36.46
2023-05-01T09:02:50.999Z,36.44
2023-05-01T09:03:51.012Z,36.41
2023-05-01T09:04:50.920Z,36.39
2023-05-01T09:05:50.919Z,36.35
2023-05-01T09:06:51.024Z,36.36
2023-05-01T09:07:50.902Z,36.35
2023-05-01T09:08:50.891Z,36.33
2023-05-01T09:09:50.885Z,36.35
2023-05-01T09:10:50.877Z,36.35
2023-05-01T09:11:50.871Z,36.36
2023-05-01T09:12:50.857Z,36.37
2023-05-01T09:13:50.856Z,36.38
2023-05-01T09:14:50.867Z,36.38
2023-05-01T09:15:50.982Z,36.38
2023-05-01T09:16:50.910Z,36.36
2023-05-01T09:17:50.946Z,36.36
2023-05-01T09:18:50.814Z,36.35
2023-05-01T09:19:50.827Z,36.37
2023-05-01T09:20:50.802Z,36.35
2023-05-01T09:21:50.806Z,36.38
2023-05-01T09:22:50.839Z,36.35
2023-05-01T09:23:50.787Z,36.35
2023-05-01T09:24:50.762Z,36.33
2023-05-01T09:25:52.086Z,36.33
2023-05-01T09:26:50.829Z,36.34
2023-05-01T09:27:50.761Z,36.40
2023-05-01T09:28:50.729Z,36.41
2023-05-01T09:29:50.813Z,36.43
2023-05-01T09:30:50.863Z,36.43
2023-05-01T09:31:50.741Z,36.45
2023-05-01T09:32:50.693Z,36.47
2023-05-01T09:33:50.660Z,36.45
2023-05-01T09:34:50.662Z,36.38
2023-05-01T09:35:50.731Z,36.36
2023-05-01T09:36:50.631Z,36.30
2023-05-01T09:37:50.637Z,36.31
2023-05-01T09:38:50.608Z,36.28
2023-05-01T09:39:50.597Z,36.26
2023-05-01T09:40:50.594Z,36.23
2023-05-01T09:41:50.623Z,36.25
2023-05-01T09:42:50.589Z,36.23
2023-05-01T09:43:50.558Z,36.22
2023-05-01T09:44:50.544Z,36.21
2023-05-01T09:45:50.547Z,36.23
2023-05-01T09:46:50.552Z,36.24
2023-05-01T09:47:50.644Z,36.22
2023-05-01T09:48:50.511Z,36.22
2023-05-01T09:49:50.498Z,36.23
2023-05-01T09:50:50.498Z,36.22
2023-05-01T09:51:50.492Z,36.24
2023-05-01T09:52:50.476Z,36.22
2023-05-01T09:53:50.519Z,36.28
2023-05-01T09:54:50.458Z,36.29
2023-05-01T09:55:50.453Z,36.29
2023-05-01T09:56:50.436Z,36.33
2023-05-01T09:57:50.444Z,36.35
2023-05-01T09:58:50.445Z,36.33
2023-05-01T09:59:50.409Z,36.33
2023-05-01T10:00:50.417Z,36.38
2023-05-01T10:01:50.863Z,36.38
2023-05-01T10:02:50.866Z,36.41
2023-05-01T10:03:50.419Z,36.41
2023-05-01T10:04:50.349Z,36.42
2023-05-01T10:05:50.358Z,36.41
2023-05-01T10:06:50.370Z,36.41
2023-05-01T10:07:50.310Z,36.39
2023-05-01T10:08:50.298Z,36.41
2023-05-01T10:09:50.288Z,36.42
2023-05-01T10:10:50.271Z,36.39
2023-05-01T10:11:50.300Z,36.42
2023-05-01T10:12:50.268Z,36.44
2023-05-01T10:13:50.243Z,36.42
2023-05-01T10:14:50.238Z,36.47
2023-05-01T10:15:50.226Z,36.50
2023-05-01T10:16:50.229Z,36.49
2023-05-01T10:17:50.228Z,36.50
2023-05-01T10:18:50.244Z,36.53
2023-05-01T10:19:50.192Z,36.55
2023-05-01T10:20:50.192Z,36.60
2023-05-01T10:21:50.168Z,36.61
2023-05-01T10:22:50.171Z,36.62
2023-05-01T10:23:50.190Z,36.58
2023-05-01T10:24:50.245Z,36.61
2023-05-01T10:25:50.144Z,36.59
2023-05-01T10:26:50.132Z,36.62
2023-05-01T10:27:50.128Z,36.63
2023-05-01T10:28:50.179Z,36.63
2023-05-01T10:29:50.127Z,36.70
2023-05-01T10:30:50.173Z,36.71
2023-05-01T10:31:50.094Z,36.75
2023-05-01T10:32:50.136Z,36.82
2023-05-01T10:33:50.083Z,36.85
2023-05-01T10:34:50.077Z,36.94
2023-05-01T10:35:50.051Z,37.01
2023-05-01T10:36:50.040Z,37.04
2023-05-01T10:37:50.036Z,37.16
2023-05-01T10:38:50.035Z,37.33
2023-05-01T10:39:50.025Z,37.34
2023-05-01T10:40:50.010Z,37.49
2023-05-01T10:41:49.995Z,37.53
2023-05-01T10:42:50.012Z,37.62
2023-05-01T10:43:49.984Z,37.63
2023-05-01T10:44:49.997Z,37.70
2023-05-01T10:45:50.063Z,37.80
2023-05-01T10:46:50.094Z,37.84
2023-05-01T10:47:49.984Z,37.85
2023-05-01T10:48:50.612Z,37.99
2023-05-01T10:49:49.944Z,38.20
2023-05-01T10:50:49.959Z,38.17
2023-05-01T10:51:49.930Z,38.25
2023-05-01T10:52:49.926Z,38.20
2023-05-01T10:53:49.926Z,38.25
2023-05-01T10:54:49.912Z,38.40
2023-05-01T10:55:49.912Z,38.42
2023-05-01T10:56:49.910Z,38.56
2023-05-01T10:57:49.909Z,38.55
2023-05-01T10:58:49.909Z,38.56
2023-05-01T10:59:49.925Z,38.54
2023-05-01T11:00:49.896Z,38.61
2023-05-01T11:01:49.915Z,38.78
2023-05-01T11:02:49.978Z,38.80
2023-05-01T11:03:49.874Z,38.73
2023-05-01T11:04:49.923Z,38.86
2023-05-01T11:05:49.916Z,38.82
2023-05-01T11:06:49.902Z,38.77
2023-05-01T11:07:49.854Z,38.84
2023-05-01T11:08:49.849Z,38.91
2023-05-01T11:09:49.852Z,38.97
2023-05-01T11:10:49.845Z,39.01
2023-05-01T11:11:49.827Z,39.06
2023-05-01T11:12:49.826Z,39.03
2023-05-01T11:13:49.815Z,38.89
2023-05-01T11:14:49.816Z,38.99
2023-05-01T11:15:49.888Z,38.99
2023-05-01T11:16:49.878Z,39.08
2023-05-01T11:17:49.920Z,38.97
2023-05-01T11:18:49.798Z,39.07
2023-05-01T11:19:49.796Z,39.07
2023-05-01T11:20:49.779Z,39.15
2023-05-01T11:21:49.780Z,39.16
2023-05-01T11:22:49.794Z,39.12
2023-05-01T11:23:49.759Z,39.08
2023-05-01T11:24:49.751Z,39.12
2023-05-01T11:25:49.737Z,39.02
2023-05-01T11:26:49.725Z,39.12
2023-05-01T11:27:49.726Z,39.24
2023-05-01T11:28:49.709Z,39.27
2023-05-01T11:29:49.737Z,39.28
2023-05-01T11:30:49.695Z,39.32
2023-05-01T11:31:49.726Z,39.29
2023-05-01T11:32:49.733Z,39.33
2023-05-01T11:33:49.678Z,39.36
2023-05-01T11:34:49.671Z,39.42
2023-05-01T11:35:49.663Z,39.42
2023-05-01T11:36:49.678Z,39.34
2023-05-01T11:37:49.661Z,39.42
2023-05-01T11:38:49.679Z,39.39
2023-05-01T11:39:49.649Z,39.29
2023-05-01T11:40:49.648Z,39.25
2023-05-01T11:41:49.658Z,39.34
2023-05-01T11:42:49.638Z,39.32
2023-05-01T11:43:49.649Z,39.29
2023-05-01T11:44:49.642Z,39.36
2023-05-01T11:45:49.647Z,39.45
2023-05-01T11:46:49.622Z,39.39
2023-05-01T11:47:49.706Z,39.34
2023-05-01T11:48:49.603Z,39.37
2023-05-01T11:49:49.603Z,39.42
2023-05-01T11:50:49.592Z,39.32
2023-05-01T11:51:49.588Z,39.46
2023-05-01T11:52:49.677Z,39.47
2023-05-01T11:53:49.580Z,39.45
2023-05-01T11:54:50.177Z,39.46
2023-05-01T11:55:49.579Z,39.49
2023-05-01T11:56:49.567Z,39.42
2023-05-01T11:57:49.612Z,39.44
2023-05-01T11:58:49.577Z,39.53
2023-05-01T11:59:49.557Z,39.39
2023-05-01T12:00:49.550Z,39.41
2023-05-01T12:01:49.595Z,39.32
2023-05-01T12:02:49.730Z,39.41
2023-05-01T12:03:49.629Z,39.38
2023-05-01T12:04:49.647Z,39.33
2023-05-01T12:05:49.535Z,39.50
2023-05-01T12:06:49.747Z,39.51
2023-05-01T12:07:49.524Z,39.54
2023-05-01T12:08:49.525Z,39.50
2023-05-01T12:09:49.520Z,39.57
2023-05-01T12:10:49.543Z,39.52
2023-05-01T12:11:51.836Z,39.54
2023-05-01T12:12:49.504Z,39.54
2023-05-01T12:13:49.476Z,39.57
2023-05-01T12:14:49.459Z,39.61
2023-05-01T12:15:49.454Z,39.65
2023-05-01T12:16:49.619Z,39.74
2023-05-01T12:17:49.533Z,39.84
2023-05-01T12:18:49.394Z,39.76
2023-05-01T12:19:49.372Z,39.71
2023-05-01T12:20:49.374Z,39.79
2023-05-01T12:21:49.349Z,39.90
2023-05-01T12:22:49.370Z,39.82
2023-05-01T12:23:49.306Z,39.99
2023-05-01T12:24:49.287Z,39.97
2023-05-01T12:25:49.270Z,40.32
2023-05-01T12:26:49.276Z,40.45
2023-05-01T12:27:49.237Z,40.43
2023-05-01T12:28:49.214Z,40.44
2023-05-01T12:29:49.215Z,40.71
2023-05-01T12:30:49.274Z,40.61
2023-05-01T12:31:49.282Z,40.56
2023-05-01T12:32:49.203Z,40.69
2023-05-01T12:33:49.108Z,40.85
2023-05-01T12:34:49.092Z,40.78
2023-05-01T12:35:49.065Z,40.83
2023-05-01T12:36:49.049Z,40.81
2023-05-01T12:37:49.061Z,41.39
2023-05-01T12:38:49.020Z,41.65
2023-05-01T12:39:49.001Z,41.88
2023-05-01T12:40:48.982Z,41.60
2023-05-01T12:41:48.977Z,41.63
2023-05-01T12:42:49.094Z,41.35
2023-05-01T12:43:48.932Z,41.44
2023-05-01T12:44:48.904Z,41.48
2023-05-01T12:45:48.887Z,41.85
2023-05-01T12:46:48.884Z,42.02
2023-05-01T12:47:48.891Z,41.96
2023-05-01T12:48:48.799Z,41.96
2023-05-01T12:49:48.773Z,42.20
2023-05-01T12:50:49.893Z,42.21
2023-05-01T12:51:48.740Z,42.05
2023-05-01T12:52:48.754Z,42.29